sensor_id;sensor_type;location;lat;lon;timestamp;pressure;altitude;pressure_sealevel;temperature;humidity
84483;BME280;74703;51.284;22.590;2024-03-23T00:55:54;98798.28;;;8.41;81.07
84483;BME280;74703;51.284;22.590;2024-03-23T01:00:55;98787.06;;;8.40;80.86
84483;BME280;74703;51.284;22.590;2024-03-23T01:06:02;98764.31;;;8.28;81.51
84483;BME280;74703;51.284;22.590;2024-03-23T01:11:03;98764.25;;;8.30;81.16
84483;BME280;74703;51.284;22.590;2024-03-23T01:16:04;98771.63;;;8.39;80.74
84483;BME280;74703;51.284;22.590;2024-03-23T01:21:05;98778.09;;;8.47;80.52
84483;BME280;74703;51.284;22.590;2024-03-23T01:26:05;98755.03;;;8.59;79.77
84483;BME280;74703;51.284;22.590;2024-03-23T01:31:06;98750.41;;;8.48;80.10
84483;BME280;74703;51.284;22.590;2024-03-23T01:36:06;98743.94;;;8.39;80.61
84483;BME280;74703;51.284;22.590;2024-03-23T01:41:07;98738.03;;;8.36;79.78
84483;BME280;74703;51.284;22.590;2024-03-23T01:46:07;98731.16;;;8.35;80.40
84483;BME280;74703;51.284;22.590;2024-03-23T01:51:08;98732.16;;;8.32;80.30
84483;BME280;74703;51.284;22.590;2024-03-23T01:56:09;98727.75;;;8.52;80.03
84483;BME280;74703;51.284;22.590;2024-03-23T02:01:09;98728.84;;;8.47;80.33
84483;BME280;74703;51.284;22.590;2024-03-23T02:06:10;98724.16;;;8.37;81.44
84483;BME280;74703;51.284;22.590;2024-03-23T02:11:11;98712.41;;;8.30;81.80
84483;BME280;74703;51.284;22.590;2024-03-23T02:16:11;98711.34;;;8.34;81.74
84483;BME280;74703;51.284;22.590;2024-03-23T02:21:13;98701.53;;;8.23;82.43
84483;BME280;74703;51.284;22.590;2024-03-23T02:26:14;98681.53;;;8.08;84.10
84483;BME280;74703;51.284;22.590;2024-03-23T02:31:15;98692.50;;;7.95;85.58
84483;BME280;74703;51.284;22.590;2024-03-23T02:36:16;98689.19;;;7.93;85.70
84483;BME280;74703;51.284;22.590;2024-03-23T02:41:16;98667.38;;;7.80;85.75
84483;BME280;74703;51.284;22.590;2024-03-23T02:46:23;98675.53;;;7.90;85.32
84483;BME280;74703;51.284;22.590;2024-03-23T02:51:23;98688.41;;;7.91;85.22
84483;BME280;74703;51.284;22.590;2024-03-23T02:56:24;98698.94;;;8.06;84.99
84483;BME280;74703;51.284;22.590;2024-03-23T03:01:24;98693.81;;;8.04;85.45
84483;BME280;74703;51.284;22.590;2024-03-23T03:06:27;98675.41;;;7.93;85.94
84483;BME280;74703;51.284;22.590;2024-03-23T03:11:27;98677.28;;;7.89;86.47
84483;BME280;74703;51.284;22.590;2024-03-23T03:16:28;98653.53;;;7.81;86.42
84483;BME280;74703;51.284;22.590;2024-03-23T03:21:28;98657.63;;;7.85;86.88
84483;BME280;74703;51.284;22.590;2024-03-23T03:26:29;98645.28;;;7.90;86.69
84483;BME280;74703;51.284;22.590;2024-03-23T03:31:30;98666.44;;;7.98;86.88
84483;BME280;74703;51.284;22.590;2024-03-23T03:36:30;98656.97;;;7.99;86.92
84483;BME280;74703;51.284;22.590;2024-03-23T03:41:31;98645.34;;;7.89;87.89
84483;BME280;74703;51.284;22.590;2024-03-23T03:46:32;98655.56;;;7.92;88.59
84483;BME280;74703;51.284;22.590;2024-03-23T03:51:33;98639.94;;;7.76;89.03
84483;BME280;74703;51.284;22.590;2024-03-23T03:56:33;98656.56;;;7.89;89.24
84483;BME280;74703;51.284;22.590;2024-03-23T04:01:34;98647.88;;;7.73;89.95
84483;BME280;74703;51.284;22.590;2024-03-23T04:06:34;98658.84;;;7.78;90.14
84483;BME280;74703;51.284;22.590;2024-03-23T04:11:35;98661.66;;;7.73;90.00
84483;BME280;74703;51.284;22.590;2024-03-23T04:16:36;98648.06;;;7.68;90.72
84483;BME280;74703;51.284;22.590;2024-03-23T04:21:37;98636.50;;;7.58;90.96
84483;BME280;74703;51.284;22.590;2024-03-23T04:26:41;98627.13;;;7.55;91.70
84483;BME280;74703;51.284;22.590;2024-03-23T04:31:42;98639.56;;;7.66;91.58
84483;BME280;74703;51.284;22.590;2024-03-23T04:36:43;98634.06;;;7.55;92.08
84483;BME280;74703;51.284;22.590;2024-03-23T04:41:43;98626.91;;;7.60;92.22
84483;BME280;74703;51.284;22.590;2024-03-23T04:46:44;98617.41;;;7.61;91.99
84483;BME280;74703;51.284;22.590;2024-03-23T04:51:44;98624.63;;;7.54;92.73
84483;BME280;74703;51.284;22.590;2024-03-23T04:56:46;98619.47;;;7.54;92.74
84483;BME280;74703;51.284;22.590;2024-03-23T05:01:46;98618.38;;;7.58;93.25
84483;BME280;74703;51.284;22.590;2024-03-23T05:06:47;98615.78;;;7.58;93.28
84483;BME280;74703;51.284;22.590;2024-03-23T05:11:48;98619.69;;;7.67;93.33
84483;BME280;74703;51.284;22.590;2024-03-23T05:16:48;98614.28;;;7.54;93.74
84483;BME280;74703;51.284;22.590;2024-03-23T05:21:49;98593.00;;;7.47;94.37
84483;BME280;74703;51.284;22.590;2024-03-23T05:26:50;98603.63;;;7.60;94.56
84483;BME280;74703;51.284;22.590;2024-03-23T05:31:51;98600.88;;;7.63;94.63
84483;BME280;74703;51.284;22.590;2024-03-23T05:36:52;98614.13;;;7.74;94.61
84483;BME280;74703;51.284;22.590;2024-03-23T05:41:52;98616.50;;;7.79;94.71
84483;BME280;74703;51.284;22.590;2024-03-23T05:46:53;98604.53;;;7.76;94.34
84483;BME280;74703;51.284;22.590;2024-03-23T05:51:53;98599.34;;;7.76;94.42
84483;BME280;74703;51.284;22.590;2024-03-23T05:56:55;98601.72;;;7.81;94.49
84483;BME280;74703;51.284;22.590;2024-03-23T06:01:56;98598.00;;;7.87;94.39
84483;BME280;74703;51.284;22.590;2024-03-23T06:06:56;98604.22;;;7.83;93.90
84483;BME280;74703;51.284;22.590;2024-03-23T06:11:58;98587.84;;;7.65;94.51
84483;BME280;74703;51.284;22.590;2024-03-23T06:16:59;98580.69;;;7.70;94.67
84483;BME280;74703;51.284;22.590;2024-03-23T06:22:00;98599.56;;;7.89;94.09
84483;BME280;74703;51.284;22.590;2024-03-23T06:27:00;98590.06;;;7.90;94.17
84483;BME280;74703;51.284;22.590;2024-03-23T06:32:01;98584.59;;;7.96;94.40
84483;BME280;74703;51.284;22.590;2024-03-23T06:37:01;98576.97;;;7.93;94.68
84483;BME280;74703;51.284;22.590;2024-03-23T06:42:04;98577.22;;;8.04;93.75
84483;BME280;74703;51.284;22.590;2024-03-23T06:47:05;98568.41;;;8.08;93.77
84483;BME280;74703;51.284;22.590;2024-03-23T06:52:05;98567.06;;;8.17;93.17
84483;BME280;74703;51.284;22.590;2024-03-23T06:57:06;98564.72;;;8.12;93.21
84483;BME280;74703;51.284;22.590;2024-03-23T07:02:07;98565.59;;;8.29;92.99
84483;BME280;74703;51.284;22.590;2024-03-23T07:07:11;98565.22;;;8.36;92.44
84483;BME280;74703;51.284;22.590;2024-03-23T07:12:12;98570.00;;;8.44;92.09
84483;BME280;74703;51.284;22.590;2024-03-23T07:17:12;98568.00;;;8.49;91.95
84483;BME280;74703;51.284;22.590;2024-03-23T07:22:13;98573.88;;;8.53;91.92
84483;BME280;74703;51.284;22.590;2024-03-23T07:27:14;98556.66;;;8.52;91.71
84483;BME280;74703;51.284;22.590;2024-03-23T07:32:14;98549.63;;;8.54;91.21
84483;BME280;74703;51.284;22.590;2024-03-23T07:37:15;98555.31;;;8.44;90.70
84483;BME280;74703;51.284;22.590;2024-03-23T07:42:15;98529.31;;;8.29;91.04
84483;BME280;74703;51.284;22.590;2024-03-23T07:47:16;98535.34;;;8.29;92.05
84483;BME280;74703;51.284;22.590;2024-03-23T07:52:17;98541.03;;;8.36;92.11
84483;BME280;74703;51.284;22.590;2024-03-23T07:57:17;98523.81;;;8.35;92.52
84483;BME280;74703;51.284;22.590;2024-03-23T08:02:18;98516.81;;;8.53;92.07
84483;BME280;74703;51.284;22.590;2024-03-23T08:07:18;98504.94;;;8.64;91.41
84483;BME280;74703;51.284;22.590;2024-03-23T08:12:19;98505.06;;;8.63;91.61
84483;BME280;74703;51.284;22.590;2024-03-23T08:17:20;98509.97;;;8.67;91.62
84483;BME280;74703;51.284;22.590;2024-03-23T08:22:21;98487.28;;;8.71;92.30
84483;BME280;74703;51.284;22.590;2024-03-23T08:27:22;98488.03;;;8.89;92.16
84483;BME280;74703;51.284;22.590;2024-03-23T08:32:22;98495.97;;;9.02;91.84
84483;BME280;74703;51.284;22.590;2024-03-23T08:37:23;98480.72;;;9.42;91.16
84483;BME280;74703;51.284;22.590;2024-03-23T08:42:25;98481.88;;;9.80;89.64
84483;BME280;74703;51.284;22.590;2024-03-23T08:47:25;98475.66;;;10.12;88.73
84483;BME280;74703;51.284;22.590;2024-03-23T08:52:26;98463.31;;;10.29;86.86
84483;BME280;74703;51.284;22.590;2024-03-23T08:57:29;98454.94;;;10.39;86.88
84483;BME280;74703;51.284;22.590;2024-03-23T09:02:30;98449.53;;;10.42;87.23
84483;BME280;74703;51.284;22.590;2024-03-23T09:07:31;98427.13;;;10.26;85.98
84483;BME280;74703;51.284;22.590;2024-03-23T09:12:32;98426.63;;;10.20;86.41
84483;BME280;74703;51.284;22.590;2024-03-23T09:17:32;98415.84;;;10.26;86.30
84483;BME280;74703;51.284;22.590;2024-03-23T09:22:33;98405.09;;;10.32;86.83
84483;BME280;74703;51.284;22.590;2024-03-23T09:27:33;98383.56;;;10.16;85.20
84483;BME280;74703;51.284;22.590;2024-03-23T09:32:34;98399.66;;;10.08;86.00
84483;BME280;74703;51.284;22.590;2024-03-23T09:37:34;98389.31;;;10.21;85.98
84483;BME280;74703;51.284;22.590;2024-03-23T09:42:35;98402.03;;;10.52;85.74
84483;BME280;74703;51.284;22.590;2024-03-23T09:47:36;98384.91;;;10.50;84.94
84483;BME280;74703;51.284;22.590;2024-03-23T09:52:36;98387.94;;;10.57;84.11
84483;BME280;74703;51.284;22.590;2024-03-23T09:57:37;98383.38;;;10.73;83.67
84483;BME280;74703;51.284;22.590;2024-03-23T10:02:37;98374.44;;;10.77;82.64
84483;BME280;74703;51.284;22.590;2024-03-23T10:07:38;98361.31;;;10.66;84.26
84483;BME280;74703;51.284;22.590;2024-03-23T10:12:47;98363.50;;;10.72;83.97
84483;BME280;74703;51.284;22.590;2024-03-23T10:17:51;98336.78;;;10.43;83.41
84483;BME280;74703;51.284;22.590;2024-03-23T10:22:52;98344.72;;;10.41;83.40
84483;BME280;74703;51.284;22.590;2024-03-23T10:27:59;98342.31;;;10.38;82.67
84483;BME280;74703;51.284;22.590;2024-03-23T10:33:10;98335.47;;;10.50;83.25
84483;BME280;74703;51.284;22.590;2024-03-23T10:38:11;98326.47;;;10.68;83.23
84483;BME280;74703;51.284;22.590;2024-03-23T10:43:13;98303.16;;;10.67;82.53
84483;BME280;74703;51.284;22.590;2024-03-23T10:48:14;98298.56;;;10.83;81.58
84483;BME280;74703;51.284;22.590;2024-03-23T10:53:15;98294.97;;;10.98;81.63
84483;BME280;74703;51.284;22.590;2024-03-23T10:58:23;98267.25;;;11.10;80.26
84483;BME280;74703;51.284;22.590;2024-03-23T11:08:38;98233.38;;;11.73;78.31
84483;BME280;74703;51.284;22.590;2024-03-23T11:13:39;98247.91;;;12.36;76.12
84483;BME280;74703;51.284;22.590;2024-03-23T11:18:40;98242.78;;;12.81;73.40
84483;BME280;74703;51.284;22.590;2024-03-23T11:23:41;98236.25;;;12.75;72.75
84483;BME280;74703;51.284;22.590;2024-03-23T11:28:42;98216.94;;;12.89;73.53
84483;BME280;74703;51.284;22.590;2024-03-23T11:33:43;98222.16;;;13.45;73.30
84483;BME280;74703;51.284;22.590;2024-03-23T11:38:44;98183.00;;;13.78;69.74
84483;BME280;74703;51.284;22.590;2024-03-23T11:43:44;98169.63;;;13.92;69.53
84483;BME280;74703;51.284;22.590;2024-03-23T11:48:49;98152.38;;;13.68;67.99
84483;BME280;74703;51.284;22.590;2024-03-23T11:53:51;98160.22;;;13.68;68.21
84483;BME280;74703;51.284;22.590;2024-03-23T11:58:52;98157.28;;;13.83;68.08
84483;BME280;74703;51.284;22.590;2024-03-23T12:03:53;98152.44;;;13.78;67.72
84483;BME280;74703;51.284;22.590;2024-03-23T12:09:05;98124.19;;;13.40;68.95
84483;BME280;74703;51.284;22.590;2024-03-23T12:14:06;98114.06;;;13.79;67.88
84483;BME280;74703;51.284;22.590;2024-03-23T12:19:07;98079.25;;;13.99;66.88
84483;BME280;74703;51.284;22.590;2024-03-23T12:24:08;98104.16;;;14.66;64.42
84483;BME280;74703;51.284;22.590;2024-03-23T12:29:08;98095.97;;;14.90;64.33
84483;BME280;74703;51.284;22.590;2024-03-23T12:34:09;98082.97;;;14.79;62.58
84483;BME280;74703;51.284;22.590;2024-03-23T12:39:09;98079.09;;;14.73;62.34
84483;BME280;74703;51.284;22.590;2024-03-23T12:44:10;98060.31;;;14.58;62.16
84483;BME280;74703;51.284;22.590;2024-03-23T12:49:12;98067.38;;;14.68;63.14
84483;BME280;74703;51.284;22.590;2024-03-23T12:54:12;98053.06;;;14.81;61.94
84483;BME280;74703;51.284;22.590;2024-03-23T12:59:13;98041.50;;;14.84;60.20
84483;BME280;74703;51.284;22.590;2024-03-23T13:04:14;98024.25;;;14.72;60.81
84483;BME280;74703;51.284;22.590;2024-03-23T13:09:15;98031.38;;;14.60;61.86
84483;BME280;74703;51.284;22.590;2024-03-23T13:14:17;98013.78;;;14.31;62.49
84483;BME280;74703;51.284;22.590;2024-03-23T13:19:18;98006.31;;;14.27;63.02
84483;BME280;74703;51.284;22.590;2024-03-23T13:24:24;97990.03;;;14.13;62.50
84483;BME280;74703;51.284;22.590;2024-03-23T13:29:24;97977.63;;;14.15;61.75
84483;BME280;74703;51.284;22.590;2024-03-23T13:34:25;97959.47;;;14.14;61.50
84483;BME280;74703;51.284;22.590;2024-03-23T13:39:26;97963.81;;;14.44;61.92
84483;BME280;74703;51.284;22.590;2024-03-23T13:44:27;97945.19;;;14.78;60.38
84483;BME280;74703;51.284;22.590;2024-03-23T13:49:29;97929.19;;;14.81;59.49
84483;BME280;74703;51.284;22.590;2024-03-23T13:54:31;97931.25;;;14.97;58.66
84483;BME280;74703;51.284;22.590;2024-03-23T13:59:32;97936.09;;;15.11;57.08
84483;BME280;74703;51.284;22.590;2024-03-23T14:04:32;97922.56;;;15.16;57.04
84483;BME280;74703;51.284;22.590;2024-03-23T14:09:33;97909.22;;;14.89;56.31
84483;BME280;74703;51.284;22.590;2024-03-23T14:14:33;97885.09;;;14.96;56.89
84483;BME280;74703;51.284;22.590;2024-03-23T14:19:34;97881.09;;;15.01;56.53
84483;BME280;74703;51.284;22.590;2024-03-23T14:24:34;97866.63;;;15.07;56.55
84483;BME280;74703;51.284;22.590;2024-03-23T14:29:35;97872.81;;;15.06;55.86
84483;BME280;74703;51.284;22.590;2024-03-23T14:34:36;97864.94;;;15.16;55.54
84483;BME280;74703;51.284;22.590;2024-03-23T14:39:36;97852.09;;;15.32;55.26
84483;BME280;74703;51.284;22.590;2024-03-23T14:44:39;97842.84;;;15.28;54.32
84483;BME280;74703;51.284;22.590;2024-03-23T14:49:40;97841.63;;;15.12;54.45
84483;BME280;74703;51.284;22.590;2024-03-23T14:54:40;97838.47;;;15.09;55.94
84483;BME280;74703;51.284;22.590;2024-03-23T14:59:41;97829.38;;;15.23;54.60
84483;BME280;74703;51.284;22.590;2024-03-23T15:04:41;97835.50;;;15.41;53.66
84483;BME280;74703;51.284;22.590;2024-03-23T15:09:42;97838.81;;;15.43;54.39
84483;BME280;74703;51.284;22.590;2024-03-23T15:14:42;97828.34;;;15.43;54.26
84483;BME280;74703;51.284;22.590;2024-03-23T15:19:43;97817.75;;;15.35;53.22
84483;BME280;74703;51.284;22.590;2024-03-23T15:24:44;97816.16;;;15.05;54.80
84483;BME280;74703;51.284;22.590;2024-03-23T15:29:44;97794.16;;;14.69;56.11
84483;BME280;74703;51.284;22.590;2024-03-23T15:34:46;97785.59;;;14.28;57.38
84483;BME280;74703;51.284;22.590;2024-03-23T15:39:47;97785.72;;;13.97;57.36
84483;BME280;74703;51.284;22.590;2024-03-23T15:44:47;97778.88;;;13.56;58.27
84483;BME280;74703;51.284;22.590;2024-03-23T15:49:48;97791.56;;;13.29;60.64
84483;BME280;74703;51.284;22.590;2024-03-23T15:54:49;97772.28;;;13.00;61.88
84483;BME280;74703;51.284;22.590;2024-03-23T15:59:49;97768.91;;;12.88;61.78
84483;BME280;74703;51.284;22.590;2024-03-23T16:04:50;97763.06;;;12.75;61.83
84483;BME280;74703;51.284;22.590;2024-03-23T16:09:50;97740.84;;;12.80;61.53
84483;BME280;74703;51.284;22.590;2024-03-23T16:14:51;97746.91;;;12.81;61.70
84483;BME280;74703;51.284;22.590;2024-03-23T16:19:51;97739.38;;;12.88;61.79
84483;BME280;74703;51.284;22.590;2024-03-23T16:24:52;97723.78;;;12.76;62.08
84483;BME280;74703;51.284;22.590;2024-03-23T16:29:53;97724.63;;;12.77;63.09
84483;BME280;74703;51.284;22.590;2024-03-23T16:34:53;97715.28;;;12.53;62.89
84483;BME280;74703;51.284;22.590;2024-03-23T16:39:54;97731.00;;;12.63;62.59
84483;BME280;74703;51.284;22.590;2024-03-23T16:44:55;97740.97;;;12.58;63.31
84483;BME280;74703;51.284;22.590;2024-03-23T16:49:55;97758.97;;;12.61;62.75
84483;BME280;74703;51.284;22.590;2024-03-23T16:54:57;97778.50;;;12.46;63.35
84483;BME280;74703;51.284;22.590;2024-03-23T16:59:57;97817.34;;;12.60;63.08
84483;BME280;74703;51.284;22.590;2024-03-23T17:04:58;97824.91;;;12.63;63.39
84483;BME280;74703;51.284;22.590;2024-03-23T17:09:58;97842.28;;;12.53;64.77
84483;BME280;74703;51.284;22.590;2024-03-23T17:14:59;97851.22;;;12.39;65.25
84483;BME280;74703;51.284;22.590;2024-03-23T17:20:04;97859.59;;;12.54;65.77
84483;BME280;74703;51.284;22.590;2024-03-23T17:25:05;97869.00;;;12.34;66.70
84483;BME280;74703;51.284;22.590;2024-03-23T17:30:06;97878.88;;;12.19;69.19
84483;BME280;74703;51.284;22.590;2024-03-23T17:35:07;97886.72;;;11.85;71.36
84483;BME280;74703;51.284;22.590;2024-03-23T17:40:08;97885.97;;;11.50;72.21
84483;BME280;74703;51.284;22.590;2024-03-23T17:45:09;97894.19;;;11.10;75.03
84483;BME280;74703;51.284;22.590;2024-03-23T17:50:11;97889.84;;;10.75;77.55
84483;BME280;74703;51.284;22.590;2024-03-23T17:55:11;97893.72;;;10.45;80.48
84483;BME280;74703;51.284;22.590;2024-03-23T18:00:12;97912.28;;;10.28;83.15
84483;BME280;74703;51.284;22.590;2024-03-23T18:05:15;97892.44;;;10.14;84.16
84483;BME280;74703;51.284;22.590;2024-03-23T18:10:15;97909.34;;;9.96;85.73
84483;BME280;74703;51.284;22.590;2024-03-23T18:15:16;97896.69;;;9.78;87.23
84483;BME280;74703;51.284;22.590;2024-03-23T18:20:16;97901.38;;;9.60;88.10
84483;BME280;74703;51.284;22.590;2024-03-23T18:25:17;97954.34;;;9.83;88.13
84483;BME280;74703;51.284;22.590;2024-03-23T18:30:17;97920.50;;;9.59;88.87
84483;BME280;74703;51.284;22.590;2024-03-23T18:35:18;97926.50;;;9.60;88.99
84483;BME280;74703;51.284;22.590;2024-03-23T18:40:19;97912.25;;;9.53;89.18
84483;BME280;74703;51.284;22.590;2024-03-23T18:45:19;97932.41;;;9.62;89.61
84483;BME280;74703;51.284;22.590;2024-03-23T18:50:20;97932.53;;;9.60;89.40
84483;BME280;74703;51.284;22.590;2024-03-23T18:55:21;97937.91;;;9.70;88.31
84483;BME280;74703;51.284;22.590;2024-03-23T19:00:22;97928.06;;;9.75;87.90
84483;BME280;74703;51.284;22.590;2024-03-23T19:05:23;97931.88;;;9.82;87.81
84483;BME280;74703;51.284;22.590;2024-03-23T19:10:24;97945.91;;;9.93;87.28
84483;BME280;74703;51.284;22.590;2024-03-23T19:15:24;97928.66;;;9.92;86.96
84483;BME280;74703;51.284;22.590;2024-03-23T19:20:27;97942.47;;;9.92;87.80
84483;BME280;74703;51.284;22.590;2024-03-23T19:25:27;97929.50;;;9.79;87.68
84483;BME280;74703;51.284;22.590;2024-03-23T19:30:29;97953.94;;;9.90;87.42
84483;BME280;74703;51.284;22.590;2024-03-23T19:35:30;97944.03;;;9.95;86.57
84483;BME280;74703;51.284;22.590;2024-03-23T19:40:30;97942.69;;;9.89;86.63
84483;BME280;74703;51.284;22.590;2024-03-23T19:45:33;97935.41;;;9.94;85.71
84483;BME280;74703;51.284;22.590;2024-03-23T19:50:34;97935.94;;;9.86;86.03
84483;BME280;74703;51.284;22.590;2024-03-23T19:55:38;97933.94;;;10.03;83.84
84483;BME280;74703;51.284;22.590;2024-03-23T20:00:38;97954.13;;;9.99;82.20
84483;BME280;74703;51.284;22.590;2024-03-23T20:05:39;97958.25;;;9.89;81.88
84483;BME280;74703;51.284;22.590;2024-03-23T20:10:46;97989.56;;;9.75;76.17
84483;BME280;74703;51.284;22.590;2024-03-23T20:15:54;98001.91;;;9.06;76.43
84483;BME280;74703;51.284;22.590;2024-03-23T20:20:54;97997.78;;;8.62;74.64
84483;BME280;74703;51.284;22.590;2024-03-23T20:25:58;98011.03;;;8.29;74.94
84483;BME280;74703;51.284;22.590;2024-03-23T20:31:00;98017.16;;;8.13;75.36
84483;BME280;74703;51.284;22.590;2024-03-23T20:36:01;98031.03;;;8.12;75.53
84483;BME280;74703;51.284;22.590;2024-03-23T20:41:02;98019.63;;;7.86;76.49
84483;BME280;74703;51.284;22.590;2024-03-23T20:46:03;98016.13;;;7.73;76.61
84483;BME280;74703;51.284;22.590;2024-03-23T20:51:04;98032.09;;;7.65;77.61
84483;BME280;74703;51.284;22.590;2024-03-23T20:56:05;98033.94;;;7.63;78.26
84483;BME280;74703;51.284;22.590;2024-03-23T21:01:07;98017.72;;;7.45;78.44
84483;BME280;74703;51.284;22.590;2024-03-23T21:06:09;98034.47;;;7.24;80.21
84483;BME280;74703;51.284;22.590;2024-03-23T21:11:10;98041.25;;;7.10;79.60
84483;BME280;74703;51.284;22.590;2024-03-23T21:16:10;98071.78;;;7.20;79.10
84483;BME280;74703;51.284;22.590;2024-03-23T21:21:11;98076.38;;;6.99;77.63
84483;BME280;74703;51.284;22.590;2024-03-23T21:26:12;98086.06;;;6.79;77.46
84483;BME280;74703;51.284;22.590;2024-03-23T21:31:13;98093.41;;;6.71;77.68
84483;BME280;74703;51.284;22.590;2024-03-23T21:36:13;98108.28;;;6.50;78.50
84483;BME280;74703;51.284;22.590;2024-03-23T21:41:14;98135.34;;;6.27;78.66
84483;BME280;74703;51.284;22.590;2024-03-23T21:46:14;98149.97;;;5.92;80.03
84483;BME280;74703;51.284;22.590;2024-03-23T21:51:15;98172.81;;;5.82;79.95
84483;BME280;74703;51.284;22.590;2024-03-23T21:56:18;98174.94;;;5.74;80.93
84483;BME280;74703;51.284;22.590;2024-03-23T22:01:19;98182.47;;;5.79;80.74
84483;BME280;74703;51.284;22.590;2024-03-23T22:06:20;98185.06;;;5.79;80.84
84483;BME280;74703;51.284;22.590;2024-03-23T22:11:21;98160.00;;;5.44;79.75
84483;BME280;74703;51.284;22.590;2024-03-23T22:16:21;98141.56;;;5.35;80.31
84483;BME280;74703;51.284;22.590;2024-03-23T22:21:22;98142.56;;;5.49;81.24
84483;BME280;74703;51.284;22.590;2024-03-23T22:26:22;98149.75;;;5.07;82.16
84483;BME280;74703;51.284;22.590;2024-03-23T22:31:23;98175.03;;;5.17;82.41
84483;BME280;74703;51.284;22.590;2024-03-23T22:36:23;98177.47;;;5.01;82.47
84483;BME280;74703;51.284;22.590;2024-03-23T22:41:24;98198.59;;;5.10;83.28
84483;BME280;74703;51.284;22.590;2024-03-23T22:46:24;98182.16;;;4.93;81.68
84483;BME280;74703;51.284;22.590;2024-03-23T22:51:25;98186.00;;;4.85;82.35
84483;BME280;74703;51.284;22.590;2024-03-23T22:56:25;98195.56;;;4.81;81.61
84483;BME280;74703;51.284;22.590;2024-03-23T23:01:26;98209.22;;;4.83;82.00
84483;BME280;74703;51.284;22.590;2024-03-23T23:06:27;98212.88;;;4.98;81.82
84483;BME280;74703;51.284;22.590;2024-03-23T23:11:28;98200.91;;;4.97;81.64
84483;BME280;74703;51.284;22.590;2024-03-23T23:16:29;98191.06;;;4.86;81.30
84483;BME280;74703;51.284;22.590;2024-03-23T23:21:30;98197.97;;;4.86;81.07
84483;BME280;74703;51.284;22.590;2024-03-23T23:26:30;98184.28;;;4.83;80.73
84483;BME280;74703;51.284;22.590;2024-03-23T23:31:31;98174.19;;;4.60;82.05
84483;BME280;74703;51.284;22.590;2024-03-23T23:36:31;98166.38;;;4.62;81.49
84483;BME280;74703;51.284;22.590;2024-03-23T23:41:32;98153.22;;;4.28;83.07
84483;BME280;74703;51.284;22.590;2024-03-23T23:46:32;98150.25;;;4.38;84.58
84483;BME280;74703;51.284;22.590;2024-03-23T23:51:33;98165.53;;;4.42;84.49
84483;BME280;74703;51.284;22.590;2024-03-23T23:56:33;98173.59;;;4.53;83.76
